createdAt,value
2018-05-01T00:00:40.740Z,0
2018-05-01T00:01:40.720Z,0
2018-05-01T00:02:40.713Z,0
2018-05-01T00:03:40.468Z,0
2018-05-01T00:04:40.704Z,0
2018-05-01T00:05:40.197Z,0
2018-05-01T00:06:40.703Z,0
2018-05-01T00:07:40.675Z,0
2018-05-01T00:08:40.670Z,0
2018-05-01T00:09:40.657Z,0
2018-05-01T00:10:40.645Z,0
2018-05-01T00:11:40.650Z,0
2018-05-01T00:12:40.635Z,0
2018-05-01T00:13:40.377Z,0
2018-05-01T00:14:40.111Z,0
2018-05-01T00:15:40.614Z,0
2018-05-01T00:16:40.346Z,0
2018-05-01T00:17:40.591Z,0
2018-05-01T00:18:40.589Z,0
2018-05-01T00:19:40.615Z,0
2018-05-01T00:20:40.313Z,0
2018-05-01T00:21:40.581Z,0
2018-05-01T00:22:40.307Z,0
2018-05-01T00:23:40.290Z,0
2018-05-01T00:24:40.299Z,0
2018-05-01T00:25:40.526Z,0
2018-05-01T00:26:40.526Z,0
2018-05-01T00:27:40.513Z,0
2018-05-01T00:28:40.504Z,0
2018-05-01T00:29:40.501Z,0
2018-05-01T00:30:40.504Z,0
2018-05-01T00:31:40.490Z,0
2018-05-01T00:32:40.237Z,0
2018-05-01T00:33:40.474Z,0
2018-05-01T00:34:40.513Z,0
2018-05-01T00:35:39.949Z,0
2018-05-01T00:36:39.684Z,0
2018-05-01T00:37:40.435Z,0
2018-05-01T00:38:39.669Z,0
2018-05-01T00:39:40.425Z,0
2018-05-01T00:40:40.409Z,0
2018-05-01T00:41:40.410Z,0
2018-05-01T00:42:40.476Z,0
2018-05-01T00:43:39.962Z,0
2018-05-01T00:44:40.129Z,0
2018-05-01T00:45:40.374Z,0
2018-05-01T00:46:40.118Z,0
2018-05-01T00:47:40.365Z,0
2018-05-01T00:48:40.384Z,0
2018-05-01T00:49:40.100Z,0
2018-05-01T00:50:40.415Z,0
2018-05-01T00:51:40.021Z,0
2018-05-01T00:52:40.079Z,0
2018-05-01T00:53:40.326Z,0
2018-05-01T00:54:39.802Z,0
2018-05-01T00:55:40.300Z,0
2018-05-01T00:56:40.302Z,0
2018-05-01T00:57:40.298Z,0
2018-05-01T00:58:40.039Z,0
2018-05-01T00:59:40.277Z,0
2018-05-01T01:00:40.278Z,0
2018-05-01T01:01:40.260Z,0
2018-05-01T01:02:40.253Z,0
2018-05-01T01:03:40.100Z,0
2018-05-01T01:04:39.996Z,0
2018-05-01T01:05:39.979Z,0
2018-05-01T01:06:39.718Z,0
2018-05-01T01:07:40.217Z,0
2018-05-01T01:08:40.211Z,0
2018-05-01T01:09:40.200Z,0
2018-05-01T01:10:40.204Z,0
2018-05-01T01:11:39.945Z,0
2018-05-01T01:12:39.706Z,0
2018-05-01T01:13:40.186Z,0
2018-05-01T01:14:40.172Z,0
2018-05-01T01:15:40.168Z,0
2018-05-01T01:16:40.227Z,0
2018-05-01T01:17:40.219Z,0
2018-05-01T01:18:40.161Z,0
2018-05-01T01:19:40.138Z,0
2018-05-01T01:20:39.878Z,0
2018-05-01T01:21:39.365Z,0
2018-05-01T01:22:39.618Z,0
2018-05-01T01:23:39.856Z,0
2018-05-01T01:24:40.103Z,0
2018-05-01T01:25:40.094Z,0
2018-05-01T01:26:40.090Z,0
2018-05-01T01:27:40.087Z,0
2018-05-01T01:28:40.072Z,0
2018-05-01T01:29:40.069Z,0
2018-05-01T01:30:39.814Z,0
2018-05-01T01:31:39.553Z,0
2018-05-01T01:32:40.058Z,0
2018-05-01T01:33:39.788Z,0
2018-05-01T01:34:40.039Z,0
2018-05-01T01:35:40.024Z,0
2018-05-01T01:36:40.023Z,0
2018-05-01T01:37:40.031Z,0
2018-05-01T01:38:39.771Z,0
2018-05-01T01:39:40.000Z,0
2018-05-01T01:40:39.738Z,0
2018-05-01T01:41:39.739Z,0
2018-05-01T01:42:39.728Z,0
2018-05-01T01:43:39.469Z,0
2018-05-01T01:44:39.962Z,0
2018-05-01T01:45:39.964Z,0
2018-05-01T01:46:39.703Z,0
2018-05-01T01:47:39.952Z,0
2018-05-01T01:48:39.945Z,0
2018-05-01T01:49:39.682Z,0
2018-05-01T01:50:39.421Z,0
2018-05-01T01:51:39.664Z,0
2018-05-01T01:52:39.916Z,0
2018-05-01T01:53:39.912Z,0
2018-05-01T01:54:39.908Z,0
2018-05-01T01:55:39.133Z,0
2018-05-01T01:56:39.905Z,0
2018-05-01T01:57:39.643Z,0
2018-05-01T01:58:39.873Z,0
2018-05-01T01:59:39.636Z,0
2018-05-01T02:00:39.363Z,0
2018-05-01T02:01:39.852Z,0
2018-05-01T02:02:39.851Z,0
2018-05-01T02:03:39.589Z,0
2018-05-01T02:04:39.833Z,0
2018-05-01T02:05:39.833Z,0
2018-05-01T02:06:39.819Z,0
2018-05-01T02:07:39.560Z,0
2018-05-01T02:08:39.811Z,0
2018-05-01T02:09:39.548Z,0
2018-05-01T02:10:39.551Z,0
2018-05-01T02:11:39.811Z,0
2018-05-01T02:12:39.555Z,0
2018-05-01T02:13:40.039Z,0
2018-05-01T02:14:39.765Z,0
2018-05-01T02:15:39.779Z,0
2018-05-01T02:16:39.755Z,0
2018-05-01T02:17:39.756Z,0
2018-05-01T02:18:39.488Z,0
2018-05-01T02:19:39.480Z,0
2018-05-01T02:20:39.483Z,0
2018-05-01T02:21:39.469Z,0
2018-05-01T02:22:39.211Z,0
2018-05-01T02:23:39.709Z,0
2018-05-01T02:24:39.709Z,0
2018-05-01T02:25:39.453Z,0
2018-05-01T02:26:39.695Z,0
2018-05-01T02:27:39.697Z,0
2018-05-01T02:28:39.422Z,0
2018-05-01T02:29:39.703Z,0
2018-05-01T02:30:39.415Z,0
2018-05-01T02:31:39.668Z,0
2018-05-01T02:32:39.417Z,0
2018-05-01T02:33:39.686Z,0
2018-05-01T02:34:39.649Z,0
2018-05-01T02:35:39.645Z,0
2018-05-01T02:36:39.630Z,0
2018-05-01T02:37:39.373Z,0
2018-05-01T02:38:39.616Z,0
2018-05-01T02:39:39.610Z,0
2018-05-01T02:40:39.599Z,0
2018-05-01T02:41:39.596Z,0
2018-05-01T02:42:39.356Z,0
2018-05-01T02:43:39.342Z,0
2018-05-01T02:44:39.432Z,0
2018-05-01T02:45:39.585Z,0
2018-05-01T02:46:39.561Z,0
2018-05-01T02:47:39.561Z,0
2018-05-01T02:48:39.566Z,0
2018-05-01T02:49:39.552Z,0
2018-05-01T02:50:39.536Z,0
2018-05-01T02:51:39.539Z,0
2018-05-01T02:52:39.269Z,0
2018-05-01T02:53:39.014Z,0
2018-05-01T02:54:39.543Z,0
2018-05-01T02:55:39.506Z,0
2018-05-01T02:56:39.504Z,0
2018-05-01T02:57:39.252Z,0
2018-05-01T02:58:39.497Z,0
2018-05-01T02:59:39.487Z,0
2018-05-01T03:00:39.219Z,0
2018-05-01T03:01:39.216Z,0
2018-05-01T03:02:39.207Z,0
2018-05-01T03:03:39.457Z,0
2018-05-01T03:04:39.463Z,0
2018-05-01T03:05:39.451Z,0
2018-05-01T03:06:39.448Z,0
2018-05-01T03:07:39.488Z,0
2018-05-01T03:08:39.434Z,0
2018-05-01T03:09:39.282Z,0
2018-05-01T03:10:39.431Z,0
2018-05-01T03:11:39.410Z,0
2018-05-01T03:12:39.143Z,0
2018-05-01T03:13:39.403Z,0
2018-05-01T03:14:39.153Z,0
2018-05-01T03:15:39.389Z,0
2018-05-01T03:16:39.385Z,0
2018-05-01T03:17:39.386Z,0
2018-05-01T03:18:39.354Z,0
2018-05-01T03:19:39.350Z,0
2018-05-01T03:20:39.348Z,0
2018-05-01T03:21:39.358Z,0
2018-05-01T03:22:39.083Z,0
2018-05-01T03:23:39.333Z,0
2018-05-01T03:24:39.329Z,0
2018-05-01T03:25:39.316Z,0
2018-05-01T03:26:39.323Z,0
2018-05-01T03:27:39.055Z,0
2018-05-01T03:28:39.071Z,0
2018-05-01T03:29:39.285Z,0
2018-05-01T03:30:39.031Z,0
2018-05-01T03:31:39.283Z,5
2018-05-01T03:32:39.044Z,5
2018-05-01T03:33:39.261Z,5
2018-05-01T03:34:39.262Z,5
2018-05-01T03:35:39.249Z,5
2018-05-01T03:36:38.997Z,10
2018-05-01T03:37:39.243Z,10
2018-05-01T03:38:39.227Z,10
2018-05-01T03:39:39.229Z,10
2018-05-01T03:40:39.220Z,10
2018-05-01T03:41:39.214Z,15
2018-05-01T03:42:39.209Z,15
2018-05-01T03:43:39.198Z,15
2018-05-01T03:44:38.934Z,20
2018-05-01T03:45:39.195Z,20
2018-05-01T03:46:39.187Z,20
2018-05-01T03:47:39.178Z,20
2018-05-01T03:48:39.176Z,20
2018-05-01T03:49:38.906Z,20
2018-05-01T03:50:38.928Z,25
2018-05-01T03:51:39.159Z,25
2018-05-01T03:52:38.885Z,30
2018-05-01T03:53:38.889Z,35
2018-05-01T03:54:38.879Z,40
2018-05-01T03:55:39.121Z,40
2018-05-01T03:56:38.604Z,35
2018-05-01T03:57:38.863Z,35
2018-05-01T03:58:39.102Z,40
2018-05-01T03:59:38.840Z,40
2018-05-01T04:00:38.579Z,40
2018-05-01T04:01:39.084Z,40
2018-05-01T04:02:38.832Z,40
2018-05-01T04:03:38.818Z,40
2018-05-01T04:04:39.078Z,45
2018-05-01T04:05:38.549Z,50
2018-05-01T04:06:39.059Z,50
2018-05-01T04:07:39.050Z,55
2018-05-01T04:08:38.786Z,55
2018-05-01T04:09:39.031Z,55
2018-05-01T04:10:39.025Z,55
2018-05-01T04:11:39.039Z,55
2018-05-01T04:12:38.508Z,60
2018-05-01T04:13:39.015Z,65
2018-05-01T04:14:39.002Z,65
2018-05-01T04:15:39.012Z,75
2018-05-01T04:16:38.995Z,75
2018-05-01T04:17:38.983Z,80
2018-05-01T04:18:38.732Z,90
2018-05-01T04:19:38.978Z,95
2018-05-01T04:20:38.965Z,95
2018-05-01T04:21:38.961Z,95
2018-05-01T04:22:38.950Z,105
2018-05-01T04:23:38.955Z,105
2018-05-01T04:24:38.948Z,110
2018-05-01T04:25:38.945Z,105
2018-05-01T04:26:38.425Z,105
2018-05-01T04:27:38.931Z,100
2018-05-01T04:28:38.663Z,100
2018-05-01T04:29:38.655Z,100
2018-05-01T04:30:38.915Z,100
2018-05-01T04:31:38.898Z,100
2018-05-01T04:32:38.895Z,105
2018-05-01T04:33:38.634Z,110
2018-05-01T04:34:38.895Z,110
2018-05-01T04:35:38.885Z,110
2018-05-01T04:36:38.889Z,110
2018-05-01T04:37:38.871Z,115
2018-05-01T04:38:38.873Z,125
2018-05-01T04:39:38.862Z,135
2018-05-01T04:40:38.604Z,140
2018-05-01T04:41:38.594Z,150
2018-05-01T04:42:38.859Z,150
2018-05-01T04:43:38.335Z,150
2018-05-01T04:44:38.324Z,145
2018-05-01T04:45:38.328Z,130
2018-05-01T04:46:38.572Z,125
2018-05-01T04:47:38.817Z,130
2018-05-01T04:48:38.806Z,140
2018-05-01T04:49:38.813Z,150
2018-05-01T04:50:38.547Z,155
2018-05-01T04:51:38.621Z,160
2018-05-01T04:52:38.801Z,165
2018-05-01T04:53:38.531Z,180
2018-05-01T04:54:38.803Z,190
2018-05-01T04:55:38.527Z,200
2018-05-01T04:56:38.779Z,220
2018-05-01T04:57:38.855Z,220
2018-05-01T04:58:38.685Z,245
2018-05-01T04:59:38.756Z,230
2018-05-01T05:00:38.753Z,230
2018-05-01T05:01:38.500Z,235
2018-05-01T05:02:38.497Z,240
2018-05-01T05:03:38.234Z,245
2018-05-01T05:04:38.490Z,245
2018-05-01T05:05:38.749Z,230
2018-05-01T05:06:38.730Z,225
2018-05-01T05:07:38.468Z,230
2018-05-01T05:08:38.719Z,235
2018-05-01T05:09:39.110Z,220
2018-05-01T05:10:38.712Z,210
2018-05-01T05:11:38.709Z,215
2018-05-01T05:12:38.453Z,220
2018-05-01T05:13:38.442Z,230
2018-05-01T05:14:38.694Z,230
2018-05-01T05:15:38.745Z,240
2018-05-01T05:16:38.436Z,260
2018-05-01T05:17:38.437Z,295
2018-05-01T05:18:38.688Z,330
2018-05-01T05:19:38.684Z,360
2018-05-01T05:20:38.687Z,370
2018-05-01T05:21:38.416Z,395
2018-05-01T05:22:38.658Z,440
2018-05-01T05:23:38.656Z,565
2018-05-01T05:24:38.408Z,670
2018-05-01T05:25:38.412Z,555
2018-05-01T05:26:38.660Z,770
2018-05-01T05:27:38.406Z,770
2018-05-01T05:28:38.139Z,795
2018-05-01T05:29:38.404Z,465
2018-05-01T05:30:38.639Z,425
2018-05-01T05:31:38.377Z,435
2018-05-01T05:32:38.641Z,440
2018-05-01T05:33:38.373Z,455
2018-05-01T05:34:38.385Z,460
2018-05-01T05:35:38.384Z,455
2018-05-01T05:36:38.374Z,405
2018-05-01T05:37:38.629Z,360
2018-05-01T05:38:38.382Z,380
2018-05-01T05:39:38.380Z,360
2018-05-01T05:40:38.869Z,480
2018-05-01T05:41:38.132Z,320
2018-05-01T05:42:38.680Z,295
2018-05-01T05:43:38.365Z,285
2018-05-01T05:44:38.371Z,280
2018-05-01T05:45:38.388Z,280
2018-05-01T05:46:38.634Z,270
2018-05-01T05:47:38.624Z,250
2018-05-01T05:48:38.386Z,240
2018-05-01T05:49:38.360Z,255
2018-05-01T05:50:38.359Z,275
2018-05-01T05:51:38.611Z,270
2018-05-01T05:52:38.611Z,265
2018-05-01T05:53:38.357Z,270
2018-05-01T05:54:38.354Z,280
2018-05-01T05:55:38.606Z,280
2018-05-01T05:56:38.609Z,280
2018-05-01T05:57:38.350Z,290
2018-05-01T05:58:38.347Z,295
2018-05-01T05:59:38.356Z,310
2018-05-01T06:00:38.347Z,320
2018-05-01T06:01:38.366Z,335
2018-05-01T06:02:38.342Z,330
2018-05-01T06:03:38.592Z,330
2018-05-01T06:04:38.593Z,345
2018-05-01T06:05:38.343Z,380
2018-05-01T06:06:38.603Z,435
2018-05-01T06:07:38.427Z,495
2018-05-01T06:08:38.609Z,425
2018-05-01T06:09:38.338Z,440
2018-05-01T06:10:38.595Z,450
2018-05-01T06:11:38.391Z,405
2018-05-01T06:12:38.321Z,430
2018-05-01T06:13:38.992Z,485
2018-05-01T06:14:38.587Z,570
2018-05-01T06:15:38.335Z,570
2018-05-01T06:16:38.575Z,600
2018-05-01T06:17:38.315Z,375
2018-05-01T06:18:38.346Z,370
2018-05-01T06:19:38.055Z,460
2018-05-01T06:20:38.311Z,405
2018-05-01T06:21:38.564Z,425
2018-05-01T06:22:38.305Z,385
2018-05-01T06:23:38.393Z,400
2018-05-01T06:24:38.301Z,420
2018-05-01T06:25:38.307Z,445
2018-05-01T06:26:38.302Z,465
2018-05-01T06:27:38.555Z,455
2018-05-01T06:28:38.296Z,415
2018-05-01T06:29:38.291Z,385
2018-05-01T06:30:38.303Z,360
2018-05-01T06:31:38.546Z,370
2018-05-01T06:32:38.286Z,400
2018-05-01T06:33:38.308Z,405
2018-05-01T06:34:38.553Z,365
2018-05-01T06:35:38.288Z,520
2018-05-01T06:36:38.299Z,385
2018-05-01T06:37:38.736Z,535
2018-05-01T06:38:38.529Z,490
2018-05-01T06:39:38.534Z,835
2018-05-01T06:40:38.272Z,1055
2018-05-01T06:41:38.540Z,825
2018-05-01T06:42:38.291Z,1105
2018-05-01T06:43:38.267Z,1165
2018-05-01T06:44:38.533Z,1280
2018-05-01T06:45:38.259Z,635
2018-05-01T06:46:38.021Z,580
2018-05-01T06:47:38.521Z,530
2018-05-01T06:48:38.528Z,1110
2018-05-01T06:49:38.256Z,965
2018-05-01T06:50:38.276Z,970
2018-05-01T06:51:38.268Z,365
2018-05-01T06:52:38.259Z,315
2018-05-01T06:53:38.255Z,295
2018-05-01T06:54:38.264Z,305
2018-05-01T06:55:38.261Z,310
2018-05-01T06:56:38.272Z,325
2018-05-01T06:57:38.013Z,600
2018-05-01T06:58:38.264Z,495
2018-05-01T06:59:38.518Z,350
2018-05-01T07:00:38.258Z,305
2018-05-01T07:01:38.541Z,465
2018-05-01T07:02:38.267Z,610
2018-05-01T07:03:38.253Z,520
2018-05-01T07:04:39.172Z,925
2018-05-01T07:05:38.517Z,1550
2018-05-01T07:06:38.254Z,1000
2018-05-01T07:07:38.261Z,1620
2018-05-01T07:08:38.255Z,1780
2018-05-01T07:09:38.259Z,700
2018-05-01T07:10:38.262Z,470
2018-05-01T07:11:38.254Z,455
2018-05-01T07:12:38.522Z,430
2018-05-01T07:13:38.258Z,420
2018-05-01T07:14:38.540Z,425
2018-05-01T07:15:38.255Z,440
2018-05-01T07:16:38.528Z,435
2018-05-01T07:17:38.255Z,445
2018-05-01T07:18:38.258Z,470
2018-05-01T07:19:38.528Z,480
2018-05-01T07:20:38.272Z,475
2018-05-01T07:21:38.270Z,500
2018-05-01T07:22:38.258Z,520
2018-05-01T07:23:38.263Z,535
2018-05-01T07:24:38.334Z,615
2018-05-01T07:25:38.265Z,590
2018-05-01T07:26:38.534Z,545
2018-05-01T07:27:38.908Z,500
2018-05-01T07:28:38.513Z,510
2018-05-01T07:29:38.513Z,520
2018-05-01T07:30:38.518Z,535
2018-05-01T07:31:38.257Z,540
2018-05-01T07:32:38.519Z,555
2018-05-01T07:33:38.259Z,530
2018-05-01T07:34:38.007Z,520
2018-05-01T07:35:38.895Z,570
2018-05-01T07:36:38.265Z,645
2018-05-01T07:37:38.258Z,630
2018-05-01T07:38:38.257Z,660
2018-05-01T07:39:38.251Z,690
2018-05-01T07:40:37.998Z,775
2018-05-01T07:41:38.234Z,1220
2018-05-01T07:42:38.260Z,920
2018-05-01T07:43:38.517Z,1100
2018-05-01T07:44:38.590Z,1220
2018-05-01T07:45:38.513Z,1280
2018-05-01T07:46:38.267Z,695
2018-05-01T07:47:38.270Z,660
2018-05-01T07:48:38.278Z,525
2018-05-01T07:49:38.260Z,510
2018-05-01T07:50:38.579Z,525
2018-05-01T07:51:38.515Z,545
2018-05-01T07:52:38.263Z,580
2018-05-01T07:53:38.514Z,540
2018-05-01T07:54:38.257Z,565
2018-05-01T07:55:38.255Z,1540
2018-05-01T07:56:38.263Z,635
2018-05-01T07:57:38.010Z,700
2018-05-01T07:58:38.514Z,730
2018-05-01T07:59:38.263Z,670
2018-05-01T08:00:38.021Z,1920
2018-05-01T08:01:38.542Z,1245
2018-05-01T08:02:38.532Z,930
2018-05-01T08:03:38.265Z,1120
2018-05-01T08:04:38.032Z,855
2018-05-01T08:05:38.561Z,875
2018-05-01T08:06:38.300Z,765
2018-05-01T08:07:38.527Z,860
2018-05-01T08:08:38.534Z,1005
2018-05-01T08:09:38.529Z,1030
2018-05-01T08:10:38.282Z,815
2018-05-01T08:11:38.282Z,710
2018-05-01T08:12:38.310Z,700
2018-05-01T08:13:38.545Z,680
2018-05-01T08:14:38.287Z,900
2018-05-01T08:15:38.546Z,1120
2018-05-01T08:16:38.292Z,920
2018-05-01T08:17:38.296Z,830
2018-05-01T08:18:38.530Z,810
2018-05-01T08:19:38.308Z,865
2018-05-01T08:20:38.349Z,875
2018-05-01T08:21:38.309Z,900
2018-05-01T08:22:38.567Z,910
2018-05-01T08:23:38.068Z,840
2018-05-01T08:24:38.873Z,840
2018-05-01T08:25:38.317Z,845
2018-05-01T08:26:38.582Z,795
2018-05-01T08:27:38.595Z,850
2018-05-01T08:28:38.595Z,755
2018-05-01T08:29:38.346Z,600
2018-05-01T08:30:37.852Z,505
2018-05-01T08:31:38.087Z,465
2018-05-01T08:32:38.339Z,455
2018-05-01T08:33:38.359Z,485
2018-05-01T08:34:38.362Z,640
2018-05-01T08:35:38.353Z,725
2018-05-01T08:36:38.346Z,730
2018-05-01T08:37:38.164Z,695
2018-05-01T08:38:38.368Z,645
2018-05-01T08:39:38.699Z,605
2018-05-01T08:40:38.350Z,580
2018-05-01T08:41:38.430Z,555
2018-05-01T08:42:38.356Z,545
2018-05-01T08:43:38.367Z,570
2018-05-01T08:44:38.107Z,590
2018-05-01T08:45:38.623Z,625
2018-05-01T08:46:38.378Z,635
2018-05-01T08:47:38.616Z,635
2018-05-01T08:48:38.364Z,615
2018-05-01T08:49:38.121Z,580
2018-05-01T08:50:38.366Z,575
2018-05-01T08:51:38.708Z,590
2018-05-01T08:52:38.620Z,605
2018-05-01T08:53:38.620Z,630
2018-05-01T08:54:38.380Z,655
2018-05-01T08:55:38.371Z,660
2018-05-01T08:56:38.118Z,635
2018-05-01T08:57:38.368Z,610
2018-05-01T08:58:38.633Z,590
2018-05-01T08:59:38.630Z,575
2018-05-01T09:00:38.648Z,555
2018-05-01T09:01:38.387Z,535
2018-05-01T09:02:38.420Z,575
2018-05-01T09:03:38.387Z,580
2018-05-01T09:04:38.399Z,605
2018-05-01T09:05:38.373Z,695
2018-05-01T09:06:38.367Z,700
2018-05-01T09:07:38.629Z,660
2018-05-01T09:08:38.367Z,715
2018-05-01T09:09:38.803Z,770
2018-05-01T09:10:38.112Z,755
2018-05-01T09:11:38.379Z,690
2018-05-01T09:12:38.693Z,615
2018-05-01T09:13:38.388Z,655
2018-05-01T09:14:38.377Z,665
2018-05-01T09:15:38.389Z,650
2018-05-01T09:16:38.365Z,660
2018-05-01T09:17:38.778Z,715
2018-05-01T09:18:38.756Z,755
2018-05-01T09:19:38.379Z,770
2018-05-01T09:20:38.636Z,775
2018-05-01T09:21:38.619Z,785
2018-05-01T09:22:38.388Z,775
2018-05-01T09:23:38.365Z,785
2018-05-01T09:24:38.367Z,785
2018-05-01T09:25:38.388Z,770
2018-05-01T09:26:38.406Z,755
2018-05-01T09:27:38.617Z,750
2018-05-01T09:28:38.382Z,705
2018-05-01T09:29:38.125Z,680
2018-05-01T09:30:38.151Z,680
2018-05-01T09:31:38.425Z,690
2018-05-01T09:32:38.392Z,695
2018-05-01T09:33:38.379Z,710
2018-05-01T09:34:38.620Z,705
2018-05-01T09:35:38.113Z,715
2018-05-01T09:36:38.372Z,680
2018-05-01T09:37:38.370Z,675
2018-05-01T09:38:38.392Z,680
2018-05-01T09:39:38.627Z,655
2018-05-01T09:40:38.378Z,635
2018-05-01T09:41:38.630Z,655
2018-05-01T09:42:38.373Z,655
2018-05-01T09:43:38.675Z,615
2018-05-01T09:44:38.127Z,545
2018-05-01T09:45:38.638Z,545
2018-05-01T09:46:38.659Z,560
2018-05-01T09:47:38.666Z,600
2018-05-01T09:48:38.646Z,610
2018-05-01T09:49:38.702Z,595
2018-05-01T09:50:38.387Z,555
2018-05-01T09:51:38.378Z,520
2018-05-01T09:52:38.381Z,545
2018-05-01T09:53:38.636Z,495
2018-05-01T09:54:38.378Z,465
2018-05-01T09:55:38.377Z,440
2018-05-01T09:56:38.633Z,410
2018-05-01T09:57:38.630Z,400
2018-05-01T09:58:38.380Z,380
2018-05-01T09:59:38.664Z,345
2018-05-01T10:00:37.881Z,330
2018-05-01T10:01:38.432Z,295
2018-05-01T10:02:38.140Z,255
2018-05-01T10:03:38.140Z,250
2018-05-01T10:04:38.670Z,245
2018-05-01T10:05:38.632Z,245
2018-05-01T10:06:38.622Z,245
2018-05-01T10:07:38.132Z,260
2018-05-01T10:08:38.632Z,270
2018-05-01T10:09:38.112Z,310
2018-05-01T10:10:37.901Z,320
2018-05-01T10:11:38.112Z,315
2018-05-01T10:12:38.360Z,315
2018-05-01T10:13:38.432Z,325
2018-05-01T10:14:38.354Z,330
2018-05-01T10:15:38.609Z,330
2018-05-01T10:16:38.362Z,330
2018-05-01T10:17:38.375Z,320
2018-05-01T10:18:38.354Z,265
2018-05-01T10:19:38.358Z,235
2018-05-01T10:20:38.104Z,225
2018-05-01T10:21:38.095Z,220
2018-05-01T10:22:38.626Z,215
2018-05-01T10:23:38.609Z,210
2018-05-01T10:24:38.345Z,210
2018-05-01T10:25:38.610Z,210
2018-05-01T10:26:38.577Z,205
2018-05-01T10:27:38.328Z,205
2018-05-01T10:28:38.695Z,205
2018-05-01T10:29:38.319Z,200
2018-05-01T10:30:38.331Z,200
2018-05-01T10:31:38.317Z,200
2018-05-01T10:32:38.311Z,195
2018-05-01T10:33:38.326Z,195
2018-05-01T10:34:38.312Z,195
2018-05-01T10:35:38.299Z,195
2018-05-01T10:36:38.310Z,195
2018-05-01T10:37:38.304Z,190
2018-05-01T10:38:39.070Z,190
2018-05-01T10:39:38.297Z,190
2018-05-01T10:40:38.288Z,190
2018-05-01T10:41:38.555Z,190
2018-05-01T10:42:38.282Z,190
2018-05-01T10:43:38.301Z,190
2018-05-01T10:44:38.020Z,190
2018-05-01T10:45:38.363Z,185
2018-05-01T10:46:38.537Z,185
2018-05-01T10:47:38.540Z,190
2018-05-01T10:48:38.267Z,185
2018-05-01T10:49:38.278Z,185
2018-05-01T10:50:38.259Z,190
2018-05-01T10:51:38.249Z,185
2018-05-01T10:52:38.511Z,185
2018-05-01T10:53:37.735Z,185
2018-05-01T10:54:38.063Z,185
2018-05-01T10:55:38.506Z,185
2018-05-01T10:56:38.239Z,185
2018-05-01T10:57:38.234Z,185
2018-05-01T10:58:38.236Z,185
2018-05-01T10:59:38.235Z,185
2018-05-01T11:00:38.545Z,185
2018-05-01T11:01:38.003Z,185
2018-05-01T11:02:37.717Z,195
2018-05-01T11:03:38.229Z,185
2018-05-01T11:04:38.213Z,190
2018-05-01T11:05:37.950Z,190
2018-05-01T11:06:38.193Z,190
2018-05-01T11:07:38.197Z,190
2018-05-01T11:08:38.189Z,185
2018-05-01T11:09:37.935Z,180
2018-05-01T11:10:38.227Z,185
2018-05-01T11:11:37.933Z,185
2018-05-01T11:12:38.192Z,180
2018-05-01T11:13:38.473Z,180
2018-05-01T11:14:37.916Z,180
2018-05-01T11:15:38.193Z,180
2018-05-01T11:16:38.419Z,180
2018-05-01T11:17:38.704Z,175
2018-05-01T11:18:37.913Z,175
2018-05-01T11:19:38.155Z,180
2018-05-01T11:20:38.157Z,175
2018-05-01T11:21:37.895Z,175
2018-05-01T11:22:38.172Z,175
2018-05-01T11:23:38.134Z,175
2018-05-01T11:24:38.544Z,175
2018-05-01T11:25:38.141Z,175
2018-05-01T11:26:38.125Z,180
2018-05-01T11:27:38.119Z,175
2018-05-01T11:28:38.652Z,175
2018-05-01T11:29:38.377Z,175
2018-05-01T11:30:38.365Z,175
2018-05-01T11:31:38.109Z,185
2018-05-01T11:32:38.104Z,180
2018-05-01T11:33:38.297Z,180
2018-05-01T11:34:38.115Z,180
2018-05-01T11:35:38.103Z,180
2018-05-01T11:36:38.362Z,185
2018-05-01T11:37:38.373Z,180
2018-05-01T11:38:38.358Z,180
2018-05-01T11:39:38.342Z,200
2018-05-01T11:40:38.072Z,215
2018-05-01T11:41:38.347Z,195
2018-05-01T11:42:38.071Z,195
2018-05-01T11:43:38.076Z,180
2018-05-01T11:44:38.323Z,180
2018-05-01T11:45:38.068Z,220
2018-05-01T11:46:38.155Z,200
2018-05-01T11:47:38.064Z,185
2018-05-01T11:48:38.046Z,180
2018-05-01T11:49:38.307Z,185
2018-05-01T11:50:38.057Z,190
2018-05-01T11:51:38.043Z,185
2018-05-01T11:52:38.295Z,180
2018-05-01T11:53:38.084Z,175
2018-05-01T11:54:38.028Z,175
2018-05-01T11:55:38.271Z,190
2018-05-01T11:56:38.281Z,195
2018-05-01T11:57:38.028Z,185
2018-05-01T11:58:38.265Z,180
2018-05-01T11:59:38.032Z,180
2018-05-01T12:00:38.265Z,180
2018-05-01T12:01:38.266Z,200
2018-05-01T12:02:38.490Z,220
2018-05-01T12:03:38.257Z,205
2018-05-01T12:04:38.706Z,230
2018-05-01T12:05:38.008Z,260
2018-05-01T12:06:37.751Z,240
2018-05-01T12:07:37.990Z,205
2018-05-01T12:08:37.737Z,185
2018-05-01T12:09:37.741Z,180
2018-05-01T12:10:38.238Z,180
2018-05-01T12:11:37.464Z,185
2018-05-01T12:12:37.968Z,185
2018-05-01T12:13:38.221Z,190
2018-05-01T12:14:38.295Z,185
2018-05-01T12:15:38.214Z,180
2018-05-01T12:16:38.214Z,200
2018-05-01T12:17:38.205Z,290
2018-05-01T12:18:38.399Z,320
2018-05-01T12:19:37.963Z,305
2018-05-01T12:20:37.967Z,320
2018-05-01T12:21:38.185Z,280
2018-05-01T12:22:38.198Z,230
2018-05-01T12:23:38.202Z,215
2018-05-01T12:24:38.190Z,195
2018-05-01T12:25:38.188Z,200
2018-05-01T12:26:38.189Z,235
2018-05-01T12:27:37.964Z,290
2018-05-01T12:28:38.162Z,235
2018-05-01T12:29:37.905Z,195
2018-05-01T12:30:37.903Z,185
2018-05-01T12:31:37.908Z,190
2018-05-01T12:32:37.943Z,220
2018-05-01T12:33:37.638Z,220
2018-05-01T12:34:37.638Z,210
2018-05-01T12:35:38.144Z,200
2018-05-01T12:36:38.971Z,200
2018-05-01T12:37:37.884Z,200
2018-05-01T12:38:38.144Z,210
2018-05-01T12:39:38.134Z,220
2018-05-01T12:40:38.135Z,210
2018-05-01T12:41:38.173Z,205
2018-05-01T12:42:38.070Z,195
2018-05-01T12:43:38.071Z,195
2018-05-01T12:44:38.115Z,200
2018-05-01T12:45:38.111Z,200
2018-05-01T12:46:38.109Z,190
2018-05-01T12:47:37.847Z,195
2018-05-01T12:48:38.388Z,190
2018-05-01T12:49:37.866Z,190
2018-05-01T12:50:37.851Z,195
2018-05-01T12:51:37.846Z,200
2018-05-01T12:52:37.841Z,195
2018-05-01T12:53:37.834Z,215
2018-05-01T12:54:38.083Z,250
2018-05-01T12:55:38.083Z,220
2018-05-01T12:56:37.343Z,220
2018-05-01T12:57:37.834Z,220
2018-05-01T12:58:38.078Z,200
2018-05-01T12:59:37.838Z,225
2018-05-01T13:00:37.564Z,275
2018-05-01T13:01:37.807Z,250
2018-05-01T13:02:37.811Z,215
2018-05-01T13:03:38.052Z,210
2018-05-01T13:04:38.049Z,200
2018-05-01T13:05:37.816Z,215
2018-05-01T13:06:38.046Z,235
2018-05-01T13:07:37.799Z,230
2018-05-01T13:08:38.040Z,210
2018-05-01T13:09:38.035Z,215
2018-05-01T13:10:38.034Z,205
2018-05-01T13:11:37.779Z,200
2018-05-01T13:12:38.115Z,205
2018-05-01T13:13:37.514Z,210
2018-05-01T13:14:37.509Z,230
2018-05-01T13:15:38.033Z,240
2018-05-01T13:16:38.051Z,230
2018-05-01T13:17:37.766Z,245
2018-05-01T13:18:38.006Z,255
2018-05-01T13:19:38.011Z,235
2018-05-01T13:20:37.584Z,210
2018-05-01T13:21:38.009Z,200
2018-05-01T13:22:37.997Z,195
2018-05-01T13:23:37.988Z,195
2018-05-01T13:24:38.020Z,205
2018-05-01T13:25:37.749Z,215
2018-05-01T13:26:37.481Z,225
2018-05-01T13:27:37.980Z,220
2018-05-01T13:28:37.977Z,200
2018-05-01T13:29:37.223Z,190
2018-05-01T13:30:37.987Z,195
2018-05-01T13:31:37.758Z,210
2018-05-01T13:32:38.448Z,220
2018-05-01T13:33:37.986Z,245
2018-05-01T13:34:37.981Z,215
2018-05-01T13:35:37.721Z,200
2018-05-01T13:36:37.700Z,195
2018-05-01T13:37:37.952Z,200
2018-05-01T13:38:37.694Z,200
2018-05-01T13:39:37.945Z,200
2018-05-01T13:40:37.701Z,210
2018-05-01T13:41:37.682Z,205
2018-05-01T13:42:37.930Z,205
2018-05-01T13:43:37.166Z,220
2018-05-01T13:44:37.937Z,290
2018-05-01T13:45:37.920Z,330
2018-05-01T13:46:37.424Z,335
2018-05-01T13:47:37.474Z,320
2018-05-01T13:48:37.407Z,270
2018-05-01T13:49:37.653Z,260
2018-05-01T13:50:38.101Z,265
2018-05-01T13:51:37.898Z,255
2018-05-01T13:52:37.911Z,255
2018-05-01T13:53:37.666Z,245
2018-05-01T13:54:37.975Z,280
2018-05-01T13:55:37.649Z,265
2018-05-01T13:56:37.895Z,240
2018-05-01T13:57:37.441Z,335
2018-05-01T13:58:37.626Z,315
2018-05-01T13:59:37.372Z,270
2018-05-01T14:00:38.049Z,245
2018-05-01T14:01:37.623Z,250